Borderland, West Virginia
Current Conditions -  °F | °C
As of 5:35 PM on Friday 24 Oct 2014 (Local Time) from KPBX Reporting Station
Clear Clear  
Wind Chill: 58°   Ceiling: Unl
Heat Index: 58°   Visibility: 10mi
Dew Point: 42°   Wind: 3mph
Humidity: 55%   Direction: 280°W
Pressure: 30.07"   Gusts: NA
Location:  37.71°N, 82.31°W
Report Text: KPBX 242135Z AUTO 28003KT 10SM CLR 14/05 A3007 RMK AO2 T01440054
Loading
Personal Weather Stations






























Interactive Weather Map
Tropical Storm Tracking
New forecast layout! Learn more

10-Day Weather Forecast

Advertisements
Track Severe Weather on mobile